sensor_id;sensor_type;location;lat;lon;timestamp;P1;durP1;ratioP1;P2;durP2;ratioP2
62894;SDS011;49204;44.916;37.998;2022-10-26T00:01:27;11.50;;;6.42;;
62894;SDS011;49204;44.916;37.998;2022-10-26T00:03:56;18.75;;;7.40;;
62894;SDS011;49204;44.916;37.998;2022-10-26T00:06:24;11.00;;;5.80;;
62894;SDS011;49204;44.916;37.998;2022-10-26T00:08:55;11.97;;;5.40;;
62894;SDS011;49204;44.916;37.998;2022-10-26T00:11:24;12.58;;;6.05;;
62894;SDS011;49204;44.916;37.998;2022-10-26T00:13:53;13.70;;;5.30;;
62894;SDS011;49204;44.916;37.998;2022-10-26T00:16:23;14.35;;;6.25;;
62894;SDS011;49204;44.916;37.998;2022-10-26T00:18:53;11.65;;;5.30;;
62894;SDS011;49204;44.916;37.998;2022-10-26T00:21:22;9.68;;;5.25;;
62894;SDS011;49204;44.916;37.998;2022-10-26T00:23:51;10.25;;;5.80;;
62894;SDS011;49204;44.916;37.998;2022-10-26T00:26:20;10.35;;;4.55;;
62894;SDS011;49204;44.916;37.998;2022-10-26T00:28:51;11.85;;;5.78;;
62894;SDS011;49204;44.916;37.998;2022-10-26T00:31:22;13.10;;;5.60;;
62894;SDS011;49204;44.916;37.998;2022-10-26T00:33:55;8.08;;;4.60;;
62894;SDS011;49204;44.916;37.998;2022-10-26T00:36:25;8.83;;;5.05;;
62894;SDS011;49204;44.916;37.998;2022-10-26T00:38:54;10.03;;;4.22;;
62894;SDS011;49204;44.916;37.998;2022-10-26T00:41:28;11.20;;;4.62;;
62894;SDS011;49204;44.916;37.998;2022-10-26T00:43:58;10.65;;;4.60;;
62894;SDS011;49204;44.916;37.998;2022-10-26T00:49:07;8.30;;;3.95;;
62894;SDS011;49204;44.916;37.998;2022-10-26T00:51:32;11.10;;;4.97;;
62894;SDS011;49204;44.916;37.998;2022-10-26T00:54:06;10.00;;;4.30;;
62894;SDS011;49204;44.916;37.998;2022-10-26T00:56:37;7.12;;;4.10;;
62894;SDS011;49204;44.916;37.998;2022-10-26T00:59:08;8.98;;;3.45;;
62894;SDS011;49204;44.916;37.998;2022-10-26T01:01:39;12.13;;;4.05;;
62894;SDS011;49204;44.916;37.998;2022-10-26T01:04:10;7.50;;;3.70;;
62894;SDS011;49204;44.916;37.998;2022-10-26T01:06:40;9.13;;;3.25;;
62894;SDS011;49204;44.916;37.998;2022-10-26T01:09:10;6.37;;;2.02;;
62894;SDS011;49204;44.916;37.998;2022-10-26T01:11:39;7.47;;;3.22;;
62894;SDS011;49204;44.916;37.998;2022-10-26T01:14:09;5.58;;;2.83;;
62894;SDS011;49204;44.916;37.998;2022-10-26T01:22:20;4.92;;;3.35;;
62894;SDS011;49204;44.916;37.998;2022-10-26T01:25:11;22.52;;;8.03;;
62894;SDS011;49204;44.916;37.998;2022-10-26T01:27:53;18.02;;;7.95;;
62894;SDS011;49204;44.916;37.998;2022-10-26T01:30:25;17.12;;;7.25;;
62894;SDS011;49204;44.916;37.998;2022-10-26T01:41:31;28.05;;;11.85;;
62894;SDS011;49204;44.916;37.998;2022-10-26T01:44:13;12.82;;;6.75;;
62894;SDS011;49204;44.916;37.998;2022-10-26T01:46:40;21.95;;;8.50;;
62894;SDS011;49204;44.916;37.998;2022-10-26T01:49:11;15.78;;;7.90;;
62894;SDS011;49204;44.916;37.998;2022-10-26T01:51:43;16.73;;;7.72;;
62894;SDS011;49204;44.916;37.998;2022-10-26T01:54:13;16.77;;;7.12;;
62894;SDS011;49204;44.916;37.998;2022-10-26T01:56:46;14.28;;;6.78;;
62894;SDS011;49204;44.916;37.998;2022-10-26T01:59:25;18.42;;;7.00;;
62894;SDS011;49204;44.916;37.998;2022-10-26T02:02:04;12.82;;;6.12;;
62894;SDS011;49204;44.916;37.998;2022-10-26T02:04:41;15.58;;;5.90;;
62894;SDS011;49204;44.916;37.998;2022-10-26T02:07:33;14.38;;;6.83;;
62894;SDS011;49204;44.916;37.998;2022-10-26T02:10:27;17.75;;;5.70;;
62894;SDS011;49204;44.916;37.998;2022-10-26T02:16:00;12.82;;;7.47;;
62894;SDS011;49204;44.916;37.998;2022-10-26T02:18:52;13.85;;;8.88;;
62894;SDS011;49204;44.916;37.998;2022-10-26T02:21:24;18.90;;;12.00;;
62894;SDS011;49204;44.916;37.998;2022-10-26T02:23:54;24.70;;;14.80;;
62894;SDS011;49204;44.916;37.998;2022-10-26T02:26:26;29.35;;;16.55;;
62894;SDS011;49204;44.916;37.998;2022-10-26T02:28:58;30.08;;;17.92;;
62894;SDS011;49204;44.916;37.998;2022-10-26T02:31:28;30.20;;;18.90;;
62894;SDS011;49204;44.916;37.998;2022-10-26T02:33:59;25.90;;;16.07;;
62894;SDS011;49204;44.916;37.998;2022-10-26T02:36:31;27.07;;;12.90;;
62894;SDS011;49204;44.916;37.998;2022-10-26T02:39:02;23.85;;;14.65;;
62894;SDS011;49204;44.916;37.998;2022-10-26T02:41:33;27.55;;;15.72;;
62894;SDS011;49204;44.916;37.998;2022-10-26T02:44:09;18.50;;;13.65;;
62894;SDS011;49204;44.916;37.998;2022-10-26T02:46:54;26.17;;;13.58;;
62894;SDS011;49204;44.916;37.998;2022-10-26T02:49:24;25.77;;;15.75;;
62894;SDS011;49204;44.916;37.998;2022-10-26T02:52:16;24.63;;;13.50;;
62894;SDS011;49204;44.916;37.998;2022-10-26T02:54:53;23.22;;;13.22;;
62894;SDS011;49204;44.916;37.998;2022-10-26T02:57:37;22.95;;;13.53;;
62894;SDS011;49204;44.916;37.998;2022-10-26T03:02:36;21.02;;;12.40;;
62894;SDS011;49204;44.916;37.998;2022-10-26T03:05:12;19.65;;;13.05;;
62894;SDS011;49204;44.916;37.998;2022-10-26T03:07:37;19.27;;;11.10;;
62894;SDS011;49204;44.916;37.998;2022-10-26T03:10:06;21.70;;;13.68;;
62894;SDS011;49204;44.916;37.998;2022-10-26T03:12:35;35.17;;;18.73;;
62894;SDS011;49204;44.916;37.998;2022-10-26T03:15:05;25.85;;;15.43;;
62894;SDS011;49204;44.916;37.998;2022-10-26T03:17:34;29.60;;;18.00;;
62894;SDS011;49204;44.916;37.998;2022-10-26T03:20:03;19.52;;;9.50;;
62894;SDS011;49204;44.916;37.998;2022-10-26T03:22:33;13.18;;;8.20;;
62894;SDS011;49204;44.916;37.998;2022-10-26T03:25:02;15.28;;;10.35;;
62894;SDS011;49204;44.916;37.998;2022-10-26T03:27:31;23.27;;;11.08;;
62894;SDS011;49204;44.916;37.998;2022-10-26T03:30:00;21.25;;;11.05;;
62894;SDS011;49204;44.916;37.998;2022-10-26T03:32:29;103.30;;;32.10;;
62894;SDS011;49204;44.916;37.998;2022-10-26T03:34:58;82.35;;;25.60;;
62894;SDS011;49204;44.916;37.998;2022-10-26T03:37:27;76.87;;;26.23;;
62894;SDS011;49204;44.916;37.998;2022-10-26T03:39:56;49.23;;;20.30;;
62894;SDS011;49204;44.916;37.998;2022-10-26T03:42:24;32.08;;;13.18;;
62894;SDS011;49204;44.916;37.998;2022-10-26T03:44:53;25.55;;;14.13;;
62894;SDS011;49204;44.916;37.998;2022-10-26T03:47:22;24.77;;;12.73;;
62894;SDS011;49204;44.916;37.998;2022-10-26T03:49:51;20.35;;;10.50;;
62894;SDS011;49204;44.916;37.998;2022-10-26T03:52:19;12.30;;;5.75;;
62894;SDS011;49204;44.916;37.998;2022-10-26T03:54:50;12.55;;;5.87;;
62894;SDS011;49204;44.916;37.998;2022-10-26T03:57:19;20.77;;;8.15;;
62894;SDS011;49204;44.916;37.998;2022-10-26T03:59:47;25.92;;;10.98;;
62894;SDS011;49204;44.916;37.998;2022-10-26T04:02:16;26.55;;;10.13;;
62894;SDS011;49204;44.916;37.998;2022-10-26T04:04:45;21.45;;;8.58;;
62894;SDS011;49204;44.916;37.998;2022-10-26T04:07:14;14.33;;;7.65;;
62894;SDS011;49204;44.916;37.998;2022-10-26T04:09:43;19.80;;;6.75;;
62894;SDS011;49204;44.916;37.998;2022-10-26T04:12:12;16.23;;;7.35;;
62894;SDS011;49204;44.916;37.998;2022-10-26T04:14:40;23.85;;;8.10;;
62894;SDS011;49204;44.916;37.998;2022-10-26T04:17:09;20.08;;;7.53;;
62894;SDS011;49204;44.916;37.998;2022-10-26T04:19:38;10.95;;;6.10;;
62894;SDS011;49204;44.916;37.998;2022-10-26T04:22:06;16.60;;;6.37;;
62894;SDS011;49204;44.916;37.998;2022-10-26T04:24:35;16.62;;;6.75;;
62894;SDS011;49204;44.916;37.998;2022-10-26T04:27:04;33.02;;;8.23;;
62894;SDS011;49204;44.916;37.998;2022-10-26T04:29:33;21.65;;;9.23;;
62894;SDS011;49204;44.916;37.998;2022-10-26T04:32:01;22.93;;;9.65;;
62894;SDS011;49204;44.916;37.998;2022-10-26T04:34:30;23.90;;;10.23;;
62894;SDS011;49204;44.916;37.998;2022-10-26T04:36:59;25.20;;;10.78;;
62894;SDS011;49204;44.916;37.998;2022-10-26T04:39:28;25.82;;;12.28;;
62894;SDS011;49204;44.916;37.998;2022-10-26T04:41:57;22.48;;;10.25;;
62894;SDS011;49204;44.916;37.998;2022-10-26T04:44:26;15.60;;;8.48;;
62894;SDS011;49204;44.916;37.998;2022-10-26T04:47:15;18.10;;;9.15;;
62894;SDS011;49204;44.916;37.998;2022-10-26T04:49:44;25.00;;;10.50;;
62894;SDS011;49204;44.916;37.998;2022-10-26T04:52:13;23.83;;;13.83;;
62894;SDS011;49204;44.916;37.998;2022-10-26T04:54:42;42.48;;;26.27;;
62894;SDS011;49204;44.916;37.998;2022-10-26T04:57:10;35.48;;;19.85;;
62894;SDS011;49204;44.916;37.998;2022-10-26T04:59:39;29.95;;;19.37;;
62894;SDS011;49204;44.916;37.998;2022-10-26T05:02:08;34.55;;;20.52;;
62894;SDS011;49204;44.916;37.998;2022-10-26T05:04:36;29.63;;;19.80;;
62894;SDS011;49204;44.916;37.998;2022-10-26T05:07:05;33.55;;;17.27;;
62894;SDS011;49204;44.916;37.998;2022-10-26T05:09:34;29.82;;;17.42;;
62894;SDS011;49204;44.916;37.998;2022-10-26T05:12:03;30.68;;;16.05;;
62894;SDS011;49204;44.916;37.998;2022-10-26T05:14:32;28.47;;;15.45;;
62894;SDS011;49204;44.916;37.998;2022-10-26T05:17:00;31.33;;;13.55;;
62894;SDS011;49204;44.916;37.998;2022-10-26T05:19:29;25.40;;;12.88;;
62894;SDS011;49204;44.916;37.998;2022-10-26T05:21:58;30.25;;;14.03;;
62894;SDS011;49204;44.916;37.998;2022-10-26T05:24:27;29.07;;;13.48;;
62894;SDS011;49204;44.916;37.998;2022-10-26T05:26:56;24.07;;;10.63;;
62894;SDS011;49204;44.916;37.998;2022-10-26T05:29:24;22.82;;;12.45;;
62894;SDS011;49204;44.916;37.998;2022-10-26T05:31:53;30.30;;;14.60;;
62894;SDS011;49204;44.916;37.998;2022-10-26T05:34:22;39.48;;;18.23;;
62894;SDS011;49204;44.916;37.998;2022-10-26T05:36:51;39.25;;;16.87;;
62894;SDS011;49204;44.916;37.998;2022-10-26T05:39:20;30.35;;;16.35;;
62894;SDS011;49204;44.916;37.998;2022-10-26T05:41:49;31.05;;;16.87;;
62894;SDS011;49204;44.916;37.998;2022-10-26T05:44:18;24.92;;;14.63;;
62894;SDS011;49204;44.916;37.998;2022-10-26T05:46:47;23.98;;;14.13;;
62894;SDS011;49204;44.916;37.998;2022-10-26T05:49:16;26.50;;;15.30;;
62894;SDS011;49204;44.916;37.998;2022-10-26T05:51:44;32.95;;;13.78;;
62894;SDS011;49204;44.916;37.998;2022-10-26T05:54:13;26.52;;;12.47;;
62894;SDS011;49204;44.916;37.998;2022-10-26T05:56:42;27.55;;;12.50;;
62894;SDS011;49204;44.916;37.998;2022-10-26T05:59:12;22.55;;;11.65;;
62894;SDS011;49204;44.916;37.998;2022-10-26T06:01:49;23.62;;;10.72;;
62894;SDS011;49204;44.916;37.998;2022-10-26T06:04:24;20.72;;;11.30;;
62894;SDS011;49204;44.916;37.998;2022-10-26T06:06:52;28.77;;;11.12;;
62894;SDS011;49204;44.916;37.998;2022-10-26T06:09:22;29.67;;;10.88;;
62894;SDS011;49204;44.916;37.998;2022-10-26T06:11:51;55.33;;;11.40;;
62894;SDS011;49204;44.916;37.998;2022-10-26T06:14:20;34.18;;;9.48;;
62894;SDS011;49204;44.916;37.998;2022-10-26T06:20:07;46.63;;;10.80;;
62894;SDS011;49204;44.916;37.998;2022-10-26T06:31:05;20.27;;;7.75;;
62894;SDS011;49204;44.916;37.998;2022-10-26T06:33:34;27.70;;;8.03;;
62894;SDS011;49204;44.916;37.998;2022-10-26T06:38:48;18.42;;;5.50;;
62894;SDS011;49204;44.916;37.998;2022-10-26T06:41:22;12.78;;;5.25;;
62894;SDS011;49204;44.916;37.998;2022-10-26T06:43:51;20.10;;;5.35;;
62894;SDS011;49204;44.916;37.998;2022-10-26T06:52:22;16.95;;;4.47;;
62894;SDS011;49204;44.916;37.998;2022-10-26T06:55:00;11.38;;;4.28;;
62894;SDS011;49204;44.916;37.998;2022-10-26T06:57:34;12.10;;;4.00;;
62894;SDS011;49204;44.916;37.998;2022-10-26T07:00:06;15.80;;;4.40;;
62894;SDS011;49204;44.916;37.998;2022-10-26T07:02:36;10.90;;;4.10;;
62894;SDS011;49204;44.916;37.998;2022-10-26T07:05:05;8.95;;;4.35;;
62894;SDS011;49204;44.916;37.998;2022-10-26T07:07:36;8.38;;;3.05;;
62894;SDS011;49204;44.916;37.998;2022-10-26T07:10:10;13.38;;;5.08;;
62894;SDS011;49204;44.916;37.998;2022-10-26T07:12:40;16.48;;;6.45;;
62894;SDS011;49204;44.916;37.998;2022-10-26T07:15:09;20.32;;;7.22;;
62894;SDS011;49204;44.916;37.998;2022-10-26T07:17:44;32.03;;;11.57;;
62894;SDS011;49204;44.916;37.998;2022-10-26T07:20:17;33.10;;;9.55;;
62894;SDS011;49204;44.916;37.998;2022-10-26T07:22:56;16.50;;;4.85;;
62894;SDS011;49204;44.916;37.998;2022-10-26T07:25:22;22.55;;;6.35;;
62894;SDS011;49204;44.916;37.998;2022-10-26T07:27:55;38.08;;;6.55;;
62894;SDS011;49204;44.916;37.998;2022-10-26T07:32:58;16.87;;;5.08;;
62894;SDS011;49204;44.916;37.998;2022-10-26T07:35:31;26.12;;;5.40;;
62894;SDS011;49204;44.916;37.998;2022-10-26T07:38:00;12.58;;;3.70;;
62894;SDS011;49204;44.916;37.998;2022-10-26T07:40:30;11.80;;;2.62;;
62894;SDS011;49204;44.916;37.998;2022-10-26T07:42:59;12.35;;;3.22;;
62894;SDS011;49204;44.916;37.998;2022-10-26T07:45:28;16.30;;;3.80;;
62894;SDS011;49204;44.916;37.998;2022-10-26T07:47:57;7.35;;;2.12;;
62894;SDS011;49204;44.916;37.998;2022-10-26T07:50:26;7.47;;;2.67;;
62894;SDS011;49204;44.916;37.998;2022-10-26T07:52:56;5.62;;;2.20;;
62894;SDS011;49204;44.916;37.998;2022-10-26T07:55:25;3.62;;;1.50;;
62894;SDS011;49204;44.916;37.998;2022-10-26T07:57:54;2.80;;;0.95;;
62894;SDS011;49204;44.916;37.998;2022-10-26T08:00:23;2.17;;;1.17;;
62894;SDS011;49204;44.916;37.998;2022-10-26T08:02:52;2.62;;;1.10;;
62894;SDS011;49204;44.916;37.998;2022-10-26T08:05:21;1.87;;;1.00;;
62894;SDS011;49204;44.916;37.998;2022-10-26T08:07:50;1.90;;;1.10;;
62894;SDS011;49204;44.916;37.998;2022-10-26T08:10:19;3.35;;;1.25;;
62894;SDS011;49204;44.916;37.998;2022-10-26T08:12:48;8.00;;;1.37;;
62894;SDS011;49204;44.916;37.998;2022-10-26T08:15:18;2.08;;;1.00;;
62894;SDS011;49204;44.916;37.998;2022-10-26T08:17:47;5.12;;;1.10;;
62894;SDS011;49204;44.916;37.998;2022-10-26T08:20:15;2.08;;;0.90;;
62894;SDS011;49204;44.916;37.998;2022-10-26T08:22:44;5.35;;;1.27;;
62894;SDS011;49204;44.916;37.998;2022-10-26T08:25:13;3.08;;;1.20;;
62894;SDS011;49204;44.916;37.998;2022-10-26T08:27:42;2.67;;;1.00;;
62894;SDS011;49204;44.916;37.998;2022-10-26T08:30:11;1.40;;;1.00;;
62894;SDS011;49204;44.916;37.998;2022-10-26T08:32:41;2.90;;;1.00;;
62894;SDS011;49204;44.916;37.998;2022-10-26T08:35:10;2.33;;;1.25;;
62894;SDS011;49204;44.916;37.998;2022-10-26T08:37:39;4.58;;;1.30;;
62894;SDS011;49204;44.916;37.998;2022-10-26T08:40:09;3.77;;;1.00;;
62894;SDS011;49204;44.916;37.998;2022-10-26T08:42:39;2.77;;;1.22;;
62894;SDS011;49204;44.916;37.998;2022-10-26T08:45:34;3.72;;;1.17;;
62894;SDS011;49204;44.916;37.998;2022-10-26T08:48:17;2.02;;;0.90;;
62894;SDS011;49204;44.916;37.998;2022-10-26T08:50:56;2.95;;;1.10;;
62894;SDS011;49204;44.916;37.998;2022-10-26T08:56:05;1.22;;;1.00;;
62894;SDS011;49204;44.916;37.998;2022-10-26T08:58:32;4.72;;;1.20;;
62894;SDS011;49204;44.916;37.998;2022-10-26T09:01:02;1.37;;;0.80;;
62894;SDS011;49204;44.916;37.998;2022-10-26T09:03:31;2.25;;;1.10;;
62894;SDS011;49204;44.916;37.998;2022-10-26T09:06:07;1.65;;;0.98;;
62894;SDS011;49204;44.916;37.998;2022-10-26T09:11:45;3.10;;;1.42;;
62894;SDS011;49204;44.916;37.998;2022-10-26T09:20:08;2.70;;;1.20;;
62894;SDS011;49204;44.916;37.998;2022-10-26T09:25:38;7.55;;;1.30;;
62894;SDS011;49204;44.916;37.998;2022-10-26T09:28:14;1.55;;;1.32;;
62894;SDS011;49204;44.916;37.998;2022-10-26T09:30:39;1.60;;;0.85;;
62894;SDS011;49204;44.916;37.998;2022-10-26T09:33:17;4.12;;;1.30;;
62894;SDS011;49204;44.916;37.998;2022-10-26T09:35:51;0.88;;;0.60;;
62894;SDS011;49204;44.916;37.998;2022-10-26T09:38:28;1.55;;;0.98;;
62894;SDS011;49204;44.916;37.998;2022-10-26T09:44:04;3.17;;;1.00;;
62894;SDS011;49204;44.916;37.998;2022-10-26T09:46:44;2.47;;;0.60;;
62894;SDS011;49204;44.916;37.998;2022-10-26T09:49:11;1.30;;;1.00;;
62894;SDS011;49204;44.916;37.998;2022-10-26T09:51:42;3.08;;;0.93;;
62894;SDS011;49204;44.916;37.998;2022-10-26T09:54:15;1.17;;;0.60;;
62894;SDS011;49204;44.916;37.998;2022-10-26T09:56:46;1.42;;;0.80;;
62894;SDS011;49204;44.916;37.998;2022-10-26T09:59:20;3.02;;;1.05;;
62894;SDS011;49204;44.916;37.998;2022-10-26T10:01:51;2.55;;;0.70;;
62894;SDS011;49204;44.916;37.998;2022-10-26T10:04:21;2.30;;;0.68;;
62894;SDS011;49204;44.916;37.998;2022-10-26T10:09:33;2.70;;;1.12;;
62894;SDS011;49204;44.916;37.998;2022-10-26T10:12:02;1.42;;;0.68;;
62894;SDS011;49204;44.916;37.998;2022-10-26T10:14:33;3.00;;;0.80;;
62894;SDS011;49204;44.916;37.998;2022-10-26T10:17:14;2.75;;;0.80;;
62894;SDS011;49204;44.916;37.998;2022-10-26T10:19:46;2.42;;;0.90;;
62894;SDS011;49204;44.916;37.998;2022-10-26T10:24:57;4.05;;;1.22;;
62894;SDS011;49204;44.916;37.998;2022-10-26T10:27:28;1.52;;;0.75;;
62894;SDS011;49204;44.916;37.998;2022-10-26T10:30:18;0.78;;;0.70;;
62894;SDS011;49204;44.916;37.998;2022-10-26T10:32:30;2.55;;;1.07;;
62894;SDS011;49204;44.916;37.998;2022-10-26T10:34:59;1.22;;;0.60;;
62894;SDS011;49204;44.916;37.998;2022-10-26T10:37:29;1.92;;;0.78;;
62894;SDS011;49204;44.916;37.998;2022-10-26T10:40:00;1.40;;;0.90;;
62894;SDS011;49204;44.916;37.998;2022-10-26T10:42:36;2.50;;;1.00;;
62894;SDS011;49204;44.916;37.998;2022-10-26T10:45:15;1.20;;;0.70;;
62894;SDS011;49204;44.916;37.998;2022-10-26T10:48:01;1.10;;;0.90;;
62894;SDS011;49204;44.916;37.998;2022-10-26T10:50:51;3.50;;;1.22;;
62894;SDS011;49204;44.916;37.998;2022-10-26T10:53:34;1.12;;;0.70;;
62894;SDS011;49204;44.916;37.998;2022-10-26T10:58:45;2.62;;;1.00;;
62894;SDS011;49204;44.916;37.998;2022-10-26T11:01:16;3.12;;;1.02;;
62894;SDS011;49204;44.916;37.998;2022-10-26T11:03:59;4.05;;;0.82;;
62894;SDS011;49204;44.916;37.998;2022-10-26T11:06:33;2.12;;;0.90;;
62894;SDS011;49204;44.916;37.998;2022-10-26T11:09:10;4.00;;;1.10;;
62894;SDS011;49204;44.916;37.998;2022-10-26T11:11:57;2.27;;;1.05;;
62894;SDS011;49204;44.916;37.998;2022-10-26T11:14:28;2.08;;;1.17;;
62894;SDS011;49204;44.916;37.998;2022-10-26T11:16:55;1.37;;;0.95;;
62894;SDS011;49204;44.916;37.998;2022-10-26T11:19:33;2.77;;;1.30;;
62894;SDS011;49204;44.916;37.998;2022-10-26T11:22:08;2.87;;;0.98;;
62894;SDS011;49204;44.916;37.998;2022-10-26T11:24:41;4.67;;;1.10;;
62894;SDS011;49204;44.916;37.998;2022-10-26T11:29:53;3.52;;;1.00;;
62894;SDS011;49204;44.916;37.998;2022-10-26T11:37:55;2.75;;;0.90;;
62894;SDS011;49204;44.916;37.998;2022-10-26T11:40:43;1.35;;;0.82;;
62894;SDS011;49204;44.916;37.998;2022-10-26T11:46:08;1.25;;;0.93;;
62894;SDS011;49204;44.916;37.998;2022-10-26T11:51:37;4.62;;;1.20;;
62894;SDS011;49204;44.916;37.998;2022-10-26T11:54:44;1.75;;;1.00;;
62894;SDS011;49204;44.916;37.998;2022-10-26T11:56:58;1.52;;;0.98;;
62894;SDS011;49204;44.916;37.998;2022-10-26T11:59:29;2.62;;;0.98;;
62894;SDS011;49204;44.916;37.998;2022-10-26T12:02:11;1.75;;;1.10;;
62894;SDS011;49204;44.916;37.998;2022-10-26T12:04:41;3.37;;;1.02;;
62894;SDS011;49204;44.916;37.998;2022-10-26T12:07:17;4.95;;;1.12;;
62894;SDS011;49204;44.916;37.998;2022-10-26T12:12:25;4.47;;;0.80;;
62894;SDS011;49204;44.916;37.998;2022-10-26T12:15:08;1.85;;;0.88;;
62894;SDS011;49204;44.916;37.998;2022-10-26T12:23:16;3.10;;;0.80;;
62894;SDS011;49204;44.916;37.998;2022-10-26T12:25:45;2.37;;;0.98;;
62894;SDS011;49204;44.916;37.998;2022-10-26T12:39:31;2.60;;;0.72;;
62894;SDS011;49204;44.916;37.998;2022-10-26T12:48:19;1.82;;;1.17;;
62894;SDS011;49204;44.916;37.998;2022-10-26T12:50:01;1.92;;;1.05;;
62894;SDS011;49204;44.916;37.998;2022-10-26T12:52:51;2.83;;;1.40;;
62894;SDS011;49204;44.916;37.998;2022-10-26T12:58:23;3.50;;;1.52;;
62894;SDS011;49204;44.916;37.998;2022-10-26T13:06:34;1.85;;;1.05;;
62894;SDS011;49204;44.916;37.998;2022-10-26T13:09:21;2.90;;;1.35;;
62894;SDS011;49204;44.916;37.998;2022-10-26T13:11:53;6.58;;;1.42;;
62894;SDS011;49204;44.916;37.998;2022-10-26T13:14:24;15.25;;;1.35;;
62894;SDS011;49204;44.916;37.998;2022-10-26T13:16:55;23.30;;;3.02;;
62894;SDS011;49204;44.916;37.998;2022-10-26T13:19:39;3.92;;;1.20;;
62894;SDS011;49204;44.916;37.998;2022-10-26T13:22:12;1.75;;;1.00;;
62894;SDS011;49204;44.916;37.998;2022-10-26T13:24:48;4.37;;;1.20;;
62894;SDS011;49204;44.916;37.998;2022-10-26T13:32:41;2.50;;;1.00;;
62894;SDS011;49204;44.916;37.998;2022-10-26T13:35:13;1.52;;;0.90;;
62894;SDS011;49204;44.916;37.998;2022-10-26T13:37:44;3.25;;;1.17;;
62894;SDS011;49204;44.916;37.998;2022-10-26T13:40:19;3.85;;;1.15;;
62894;SDS011;49204;44.916;37.998;2022-10-26T13:42:56;2.35;;;1.15;;
62894;SDS011;49204;44.916;37.998;2022-10-26T13:45:30;2.80;;;1.10;;
62894;SDS011;49204;44.916;37.998;2022-10-26T13:48:11;10.28;;;1.45;;
62894;SDS011;49204;44.916;37.998;2022-10-26T13:50:49;16.45;;;2.40;;
62894;SDS011;49204;44.916;37.998;2022-10-26T13:53:23;6.70;;;1.50;;
62894;SDS011;49204;44.916;37.998;2022-10-26T13:56:05;7.15;;;1.92;;
62894;SDS011;49204;44.916;37.998;2022-10-26T13:58:56;15.25;;;2.92;;
62894;SDS011;49204;44.916;37.998;2022-10-26T14:01:15;8.75;;;1.20;;
62894;SDS011;49204;44.916;37.998;2022-10-26T14:03:46;10.75;;;1.77;;
62894;SDS011;49204;44.916;37.998;2022-10-26T14:09:05;6.17;;;1.45;;
62894;SDS011;49204;44.916;37.998;2022-10-26T14:11:43;4.10;;;1.55;;
62894;SDS011;49204;44.916;37.998;2022-10-26T14:14:17;10.00;;;3.67;;
62894;SDS011;49204;44.916;37.998;2022-10-26T14:16:50;6.55;;;2.47;;
62894;SDS011;49204;44.916;37.998;2022-10-26T14:19:25;5.33;;;1.60;;
62894;SDS011;49204;44.916;37.998;2022-10-26T14:21:57;5.80;;;2.08;;
62894;SDS011;49204;44.916;37.998;2022-10-26T14:24:28;6.12;;;2.80;;
62894;SDS011;49204;44.916;37.998;2022-10-26T14:26:59;7.55;;;3.37;;
62894;SDS011;49204;44.916;37.998;2022-10-26T14:29:30;8.55;;;3.95;;
62894;SDS011;49204;44.916;37.998;2022-10-26T14:31:59;5.45;;;2.65;;
62894;SDS011;49204;44.916;37.998;2022-10-26T14:34:27;4.58;;;2.00;;
62894;SDS011;49204;44.916;37.998;2022-10-26T14:36:57;5.83;;;2.27;;
62894;SDS011;49204;44.916;37.998;2022-10-26T14:39:37;4.72;;;1.55;;
62894;SDS011;49204;44.916;37.998;2022-10-26T14:44:57;2.67;;;1.35;;
62894;SDS011;49204;44.916;37.998;2022-10-26T14:47:27;4.83;;;1.05;;
62894;SDS011;49204;44.916;37.998;2022-10-26T14:49:58;2.00;;;1.05;;
62894;SDS011;49204;44.916;37.998;2022-10-26T14:52:29;3.25;;;1.35;;
62894;SDS011;49204;44.916;37.998;2022-10-26T14:55:14;2.80;;;1.10;;
62894;SDS011;49204;44.916;37.998;2022-10-26T14:57:44;2.22;;;1.22;;
62894;SDS011;49204;44.916;37.998;2022-10-26T15:02:47;2.22;;;1.45;;
62894;SDS011;49204;44.916;37.998;2022-10-26T15:07:59;6.42;;;2.35;;
62894;SDS011;49204;44.916;37.998;2022-10-26T15:16:17;30.62;;;12.43;;
62894;SDS011;49204;44.916;37.998;2022-10-26T15:18:48;20.82;;;9.53;;
62894;SDS011;49204;44.916;37.998;2022-10-26T15:21:28;21.07;;;9.33;;
62894;SDS011;49204;44.916;37.998;2022-10-26T15:24:03;15.20;;;6.85;;
62894;SDS011;49204;44.916;37.998;2022-10-26T15:26:43;15.68;;;7.47;;
62894;SDS011;49204;44.916;37.998;2022-10-26T15:32:04;12.43;;;5.70;;
62894;SDS011;49204;44.916;37.998;2022-10-26T15:37:48;10.33;;;5.30;;
62894;SDS011;49204;44.916;37.998;2022-10-26T15:40:18;10.58;;;4.50;;
62894;SDS011;49204;44.916;37.998;2022-10-26T15:42:49;10.10;;;4.33;;
62894;SDS011;49204;44.916;37.998;2022-10-26T15:45:22;8.75;;;4.28;;
62894;SDS011;49204;44.916;37.998;2022-10-26T15:47:53;9.38;;;4.40;;
62894;SDS011;49204;44.916;37.998;2022-10-26T15:50:24;11.12;;;4.78;;
62894;SDS011;49204;44.916;37.998;2022-10-26T15:53:01;11.85;;;4.92;;
62894;SDS011;49204;44.916;37.998;2022-10-26T15:55:32;9.93;;;4.72;;
62894;SDS011;49204;44.916;37.998;2022-10-26T15:58:02;9.98;;;4.17;;
62894;SDS011;49204;44.916;37.998;2022-10-26T16:00:31;15.18;;;5.42;;
62894;SDS011;49204;44.916;37.998;2022-10-26T16:03:00;9.10;;;4.37;;
62894;SDS011;49204;44.916;37.998;2022-10-26T16:05:29;9.60;;;4.62;;
62894;SDS011;49204;44.916;37.998;2022-10-26T16:07:59;10.60;;;4.85;;
62894;SDS011;49204;44.916;37.998;2022-10-26T16:10:27;15.20;;;5.25;;
62894;SDS011;49204;44.916;37.998;2022-10-26T16:12:56;13.50;;;5.35;;
62894;SDS011;49204;44.916;37.998;2022-10-26T16:15:25;15.32;;;5.25;;
62894;SDS011;49204;44.916;37.998;2022-10-26T16:17:54;11.33;;;5.22;;
62894;SDS011;49204;44.916;37.998;2022-10-26T16:20:23;15.53;;;5.75;;
62894;SDS011;49204;44.916;37.998;2022-10-26T16:22:54;12.93;;;4.80;;
62894;SDS011;49204;44.916;37.998;2022-10-26T16:25:24;12.20;;;4.90;;
62894;SDS011;49204;44.916;37.998;2022-10-26T16:27:53;11.05;;;4.45;;
62894;SDS011;49204;44.916;37.998;2022-10-26T16:30:22;12.90;;;4.70;;
62894;SDS011;49204;44.916;37.998;2022-10-26T16:32:51;12.18;;;4.58;;
62894;SDS011;49204;44.916;37.998;2022-10-26T16:35:20;9.15;;;4.67;;
62894;SDS011;49204;44.916;37.998;2022-10-26T16:37:49;9.93;;;4.50;;
62894;SDS011;49204;44.916;37.998;2022-10-26T16:40:17;11.85;;;6.12;;
62894;SDS011;49204;44.916;37.998;2022-10-26T16:42:46;13.13;;;5.58;;
62894;SDS011;49204;44.916;37.998;2022-10-26T16:45:15;9.90;;;5.30;;
62894;SDS011;49204;44.916;37.998;2022-10-26T16:47:44;10.55;;;4.80;;
62894;SDS011;49204;44.916;37.998;2022-10-26T16:50:13;18.07;;;6.33;;
62894;SDS011;49204;44.916;37.998;2022-10-26T16:52:43;16.30;;;5.78;;
62894;SDS011;49204;44.916;37.998;2022-10-26T16:55:12;24.10;;;7.05;;
62894;SDS011;49204;44.916;37.998;2022-10-26T16:57:41;13.05;;;4.87;;
62894;SDS011;49204;44.916;37.998;2022-10-26T17:00:10;11.28;;;5.17;;
62894;SDS011;49204;44.916;37.998;2022-10-26T17:02:39;25.92;;;14.85;;
62894;SDS011;49204;44.916;37.998;2022-10-26T17:05:07;21.27;;;12.82;;
62894;SDS011;49204;44.916;37.998;2022-10-26T17:07:36;22.10;;;11.65;;
62894;SDS011;49204;44.916;37.998;2022-10-26T17:10:05;10.53;;;6.53;;
62894;SDS011;49204;44.916;37.998;2022-10-26T17:12:33;11.85;;;6.42;;
62894;SDS011;49204;44.916;37.998;2022-10-26T17:15:02;12.25;;;5.83;;
62894;SDS011;49204;44.916;37.998;2022-10-26T17:17:31;13.72;;;6.10;;